Time;durP1;ratioP1;P1;durP2;ratioP2;P2;SDS_P1;SDS_P2;PMS_P1;PMS_P2;Temp;Humidity;BMP_temperature;BMP_pressure;BME280_temperature;BME280_humidity;BME280_pressure;Samples;Min_cycle;Max_cycle;Signal;HPM_P1;HPM_P2
2022/10/27 00:01:47;;;;;;;3.05;1.95;;;;;;;;;;5033645;28;20026;-63
2022/10/27 00:04:13;;;;;;;4.93;2.15;;;;;;;;;;5033245;28;20052;-62
2022/10/27 00:06:38;;;;;;;6.50;2.80;;;;;;;;;;5033153;28;20033;-62
2022/10/27 00:09:04;;;;;;;3.83;2.63;;;;;;;;;;5033152;28;20028;-63
2022/10/27 00:11:29;;;;;;;4.03;2.40;;;;;;;;;;5031321;28;20088;-64
2022/10/27 00:13:55;;;;;;;6.47;2.60;;;;;;;;;;5031137;28;20080;-62
2022/10/27 00:16:20;;;;;;;4.32;2.15;;;;;;;;;;5031941;28;20097;-62
2022/10/27 00:18:46;;;;;;;5.22;2.55;;;;;;;;;;5031742;28;20027;-63
2022/10/27 00:21:14;;;;;;;5.20;2.33;;;;;;;;;;5031915;28;20108;-62
2022/10/27 00:23:40;;;;;;;2.65;2.38;;;;;;;;;;5029250;28;20080;-62
2022/10/27 00:26:09;;;;;;;4.05;2.35;;;;;;;;;;5029058;28;20440;-66
2022/10/27 00:28:34;;;;;;;3.40;2.30;;;;;;;;;;5028876;28;20100;-62
2022/10/27 00:31:05;;;;;;;5.30;2.67;;;;;;;;;;5032411;28;20064;-63
2022/10/27 00:33:31;;;;;;;4.35;2.67;;;;;;;;;;5032178;28;20025;-62
2022/10/27 00:36:02;;;;;;;3.83;2.22;;;;;;;;;;5031521;28;20079;-61
2022/10/27 00:38:28;;;;;;;3.42;2.60;;;;;;;;;;5032742;28;20033;-62
2022/10/27 00:40:53;;;;;;;3.90;2.38;;;;;;;;;;5032124;28;20029;-62
2022/10/27 00:43:33;;;;;;;3.33;2.17;;;;;;;;;;5032737;28;20377;-61
2022/10/27 00:46:20;;;;;;;4.55;2.50;;;;;;;;;;5032587;28;20063;-62
2022/10/27 00:48:48;;;;;;;2.85;2.40;;;;;;;;;;5032794;28;20029;-62
2022/10/27 00:51:16;;;;;;;4.78;2.97;;;;;;;;;;5064776;28;20033;-61
2022/10/27 00:53:42;;;;;;;5.40;3.10;;;;;;;;;;5032288;28;20131;-62
2022/10/27 00:56:08;;;;;;;4.78;2.58;;;;;;;;;;5031336;28;20026;-62
2022/10/27 00:58:35;;;;;;;3.20;2.35;;;;;;;;;;5032414;28;20017;-62
2022/10/27 01:01:01;;;;;;;3.20;2.38;;;;;;;;;;5032455;28;20040;-62
2022/10/27 01:03:27;;;;;;;4.90;2.45;;;;;;;;;;5064363;28;20048;-62
2022/10/27 01:05:55;;;;;;;5.80;2.53;;;;;;;;;;5032247;28;20021;-62
2022/10/27 01:08:25;;;;;;;2.63;2.17;;;;;;;;;;5032327;28;20029;-62
2022/10/27 01:10:52;;;;;;;7.47;2.60;;;;;;;;;;5032359;28;20504;-62
2022/10/27 01:13:18;;;;;;;4.78;2.45;;;;;;;;;;5032588;28;20269;-63
2022/10/27 01:16:16;;;;;;;3.55;2.40;;;;;;;;;;5032232;28;20060;-62
2022/10/27 01:19:03;;;;;;;4.30;2.45;;;;;;;;;;5031062;28;20039;-61
2022/10/27 01:21:47;;;;;;;5.47;2.80;;;;;;;;;;5032239;28;20113;-61
2022/10/27 01:24:24;;;;;;;3.70;2.83;;;;;;;;;;5032416;28;20029;-62
2022/10/27 01:26:58;;;;;;;4.97;2.65;;;;;;;;;;5035034;28;20057;-62
2022/10/27 01:29:23;;;;;;;4.20;2.50;;;;;;;;;;5036188;28;20485;-62
2022/10/27 01:32:10;;;;;;;3.88;2.22;;;;;;;;;;5036474;28;20032;-62
2022/10/27 01:34:46;;;;;;;4.07;2.35;;;;;;;;;;5036068;28;20029;-62
2022/10/27 01:37:22;;;;;;;5.15;2.72;;;;;;;;;;5036086;28;20109;-62
2022/10/27 01:39:59;;;;;;;4.65;2.35;;;;;;;;;;5035953;28;20028;-62
2022/10/27 01:42:33;;;;;;;3.17;2.40;;;;;;;;;;5035874;28;20079;-61
2022/10/27 01:45:01;;;;;;;3.08;2.28;;;;;;;;;;5034607;28;20032;-64
2022/10/27 01:47:28;;;;;;;4.53;2.60;;;;;;;;;;5035816;28;20029;-62
2022/10/27 01:49:54;;;;;;;3.38;2.20;;;;;;;;;;5035698;28;20033;-62
2022/10/27 01:52:38;;;;;;;4.18;2.40;;;;;;;;;;5035505;28;20048;-62
2022/10/27 01:55:06;;;;;;;5.47;2.35;;;;;;;;;;5035927;28;20108;-62
2022/10/27 01:57:36;;;;;;;3.97;2.53;;;;;;;;;;5035904;28;20464;-62
2022/10/27 02:00:08;;;;;;;3.53;2.03;;;;;;;;;;5035937;28;20380;-62
2022/10/27 02:02:48;;;;;;;3.25;2.28;;;;;;;;;;5035440;28;20065;-62
2022/10/27 02:05:38;;;;;;;3.55;2.60;;;;;;;;;;5035805;28;20044;-62
2022/10/27 02:08:08;;;;;;;3.65;2.53;;;;;;;;;;5035795;28;20053;-63
2022/10/27 02:10:46;;;;;;;;;;;;;;;;;;5036102;28;20108;-62
2022/10/27 02:13:12;;;;;;;3.70;2.53;;;;;;;;;;5035427;28;19928;-62
2022/10/27 02:15:52;;;;;;;4.07;2.45;;;;;;;;;;5035523;28;20025;-62
2022/10/27 02:18:20;;;;;;;;;;;;;;;;;;5035815;28;20022;-62
2022/10/27 02:20:50;;;;;;;2.67;2.25;;;;;;;;;;5035132;28;19952;-63
2022/10/27 02:23:18;;;;;;;3.85;2.30;;;;;;;;;;5067186;28;20037;-62
2022/10/27 02:25:55;;;;;;;4.30;2.40;;;;;;;;;;5035107;28;20080;-62
2022/10/27 02:28:27;;;;;;;2.95;2.30;;;;;;;;;;5035520;28;20381;-62
2022/10/27 02:30:55;;;;;;;3.75;2.83;;;;;;;;;;5035346;28;20021;-62
2022/10/27 02:33:21;;;;;;;4.35;2.53;;;;;;;;;;5034992;28;20052;-62
2022/10/27 02:35:46;;;;;;;2.78;2.40;;;;;;;;;;5034965;28;20029;-62
2022/10/27 02:38:12;;;;;;;3.95;2.55;;;;;;;;;;5034067;28;20025;-63
2022/10/27 02:40:38;;;;;;;6.43;2.53;;;;;;;;;;5035188;28;20037;-62
2022/10/27 02:43:03;;;;;;;4.00;2.63;;;;;;;;;;5034996;28;20040;-62
2022/10/27 02:45:29;;;;;;;3.80;2.60;;;;;;;;;;5033454;28;20108;-62
2022/10/27 02:47:54;;;;;;;3.38;2.70;;;;;;;;;;5034725;28;20644;-62
2022/10/27 02:50:20;;;;;;;2.78;2.50;;;;;;;;;;5035009;28;20025;-62
2022/10/27 02:52:45;;;;;;;3.75;2.63;;;;;;;;;;5034641;28;20041;-62
2022/10/27 02:55:11;;;;;;;5.90;2.80;;;;;;;;;;5034683;28;20033;-62
2022/10/27 02:57:36;;;;;;;4.38;2.60;;;;;;;;;;5034564;28;20022;-62
2022/10/27 03:00:03;;;;;;;3.22;2.88;;;;;;;;;;5034475;28;20041;-62
2022/10/27 03:02:29;;;;;;;2.95;2.63;;;;;;;;;;5034628;28;20617;-63
2022/10/27 03:04:54;;;;;;;5.78;2.58;;;;;;;;;;5066371;28;20026;-63
2022/10/27 03:07:20;;;;;;;3.97;2.60;;;;;;;;;;5066474;28;20416;-63
2022/10/27 03:09:45;;;;;;;5.60;2.80;;;;;;;;;;5034392;28;20026;-62
2022/10/27 03:12:12;;;;;;;5.82;2.97;;;;;;;;;;5034294;28;20072;-62
2022/10/27 03:14:38;;;;;;;4.05;2.60;;;;;;;;;;5034480;28;20021;-63
2022/10/27 03:17:03;;;;;;;4.90;2.78;;;;;;;;;;5034196;28;20431;-63
2022/10/27 03:19:28;;;;;;;2.92;2.30;;;;;;;;;;5034393;28;20037;-62
2022/10/27 03:21:54;;;;;;;5.85;2.85;;;;;;;;;;5034154;28;20533;-62
2022/10/27 03:24:20;;;;;;;3.05;2.70;;;;;;;;;;5033965;28;20029;-63
2022/10/27 03:26:45;;;;;;;3.33;2.58;;;;;;;;;;5033987;28;20382;-62
2022/10/27 03:29:11;;;;;;;3.75;3.17;;;;;;;;;;5033973;28;20026;-62
2022/10/27 03:31:36;;;;;;;3.05;2.70;;;;;;;;;;5034009;28;20049;-62
2022/10/27 03:34:02;;;;;;;4.35;3.10;;;;;;;;;;5034207;28;20468;-62
2022/10/27 03:36:27;;;;;;;3.67;3.30;;;;;;;;;;5034132;28;20401;-62
2022/10/27 03:38:53;;;;;;;7.47;3.15;;;;;;;;;;5033640;28;20087;-61
2022/10/27 03:41:19;;;;;;;3.05;2.67;;;;;;;;;;5065672;28;20108;-62
2022/10/27 03:43:45;;;;;;;4.70;2.75;;;;;;;;;;5033561;28;20033;-62
2022/10/27 03:46:10;;;;;;;4.30;3.17;;;;;;;;;;5033613;28;20084;-62
2022/10/27 03:48:36;;;;;;;4.20;3.05;;;;;;;;;;5033561;28;20100;-62
2022/10/27 03:51:01;;;;;;;3.88;2.95;;;;;;;;;;5033602;28;20021;-62
2022/10/27 03:53:27;;;;;;;4.68;2.90;;;;;;;;;;5033329;28;20049;-62
2022/10/27 03:55:52;;;;;;;4.03;3.10;;;;;;;;;;5033711;28;20249;-62
2022/10/27 03:58:18;;;;;;;5.40;3.10;;;;;;;;;;5033278;28;20424;-62
2022/10/27 04:00:44;;;;;;;4.88;3.08;;;;;;;;;;5033675;28;20025;-61
2022/10/27 04:03:10;;;;;;;8.30;3.55;;;;;;;;;;5033519;28;20033;-62
2022/10/27 04:05:36;;;;;;;3.85;3.35;;;;;;;;;;5033252;28;20381;-62
2022/10/27 04:08:01;;;;;;;5.82;3.70;;;;;;;;;;5033339;28;20033;-62
2022/10/27 04:10:27;;;;;;;7.80;3.53;;;;;;;;;;5033439;28;20164;-62
2022/10/27 04:12:55;;;;;;;4.70;3.25;;;;;;;;;;5033146;28;20099;-62
2022/10/27 04:15:23;;;;;;;5.28;3.40;;;;;;;;;;5033283;28;20075;-62
2022/10/27 04:17:52;;;;;;;4.63;3.10;;;;;;;;;;5032988;28;20032;-62
2022/10/27 04:20:17;;;;;;;4.65;3.60;;;;;;;;;;5064980;28;20064;-62
2022/10/27 04:22:44;;;;;;;4.65;3.22;;;;;;;;;;5032960;28;20053;-62
2022/10/27 04:25:09;;;;;;;6.07;3.28;;;;;;;;;;5033120;28;20071;-62
2022/10/27 04:27:35;;;;;;;3.88;3.10;;;;;;;;;;5033177;28;20068;-62
2022/10/27 04:30:01;;;;;;;4.38;3.25;;;;;;;;;;5033112;28;20047;-62
2022/10/27 04:32:26;;;;;;;5.28;3.35;;;;;;;;;;5032801;28;20026;-62
2022/10/27 04:34:52;;;;;;;4.70;3.67;;;;;;;;;;5032765;28;20033;-62
2022/10/27 04:37:17;;;;;;;5.13;3.30;;;;;;;;;;5032716;28;20037;-62
2022/10/27 04:39:42;;;;;;;5.47;3.22;;;;;;;;;;5032797;28;20038;-62
2022/10/27 04:42:10;;;;;;;4.43;3.53;;;;;;;;;;5032664;28;20092;-62
2022/10/27 04:44:35;;;;;;;7.10;3.28;;;;;;;;;;5032751;28;20025;-62
2022/10/27 04:47:01;;;;;;;4.70;3.33;;;;;;;;;;5032824;28;20469;-63
2022/10/27 04:49:27;;;;;;;5.13;3.40;;;;;;;;;;5032459;28;20032;-63
2022/10/27 04:51:52;;;;;;;4.40;3.28;;;;;;;;;;5032529;28;20025;-64
2022/10/27 04:54:18;;;;;;;7.75;3.30;;;;;;;;;;5032334;28;20053;-64
2022/10/27 04:56:44;;;;;;;4.22;3.45;;;;;;;;;;5032760;28;20033;-65
2022/10/27 04:59:10;;;;;;;4.88;3.70;;;;;;;;;;5032633;28;20115;-64
2022/10/27 05:01:35;;;;;;;4.30;3.42;;;;;;;;;;5032155;28;20026;-65
2022/10/27 05:04:01;;;;;;;4.40;3.65;;;;;;;;;;5032299;28;20075;-66
2022/10/27 05:06:27;;;;;;;5.53;3.90;;;;;;;;;;5032595;28;20032;-64
2022/10/27 05:08:52;;;;;;;5.22;3.70;;;;;;;;;;5032332;28;20013;-65
2022/10/27 05:11:18;;;;;;;3.97;3.53;;;;;;;;;;5032335;28;20033;-61
2022/10/27 05:13:47;;;;;;;4.78;3.88;;;;;;;;;;5032328;28;20029;-62
2022/10/27 05:16:13;;;;;;;5.13;3.70;;;;;;;;;;5032243;28;20053;-65
2022/10/27 05:18:38;;;;;;;5.97;4.22;;;;;;;;;;5031998;28;20057;-66
2022/10/27 05:21:04;;;;;;;5.03;3.67;;;;;;;;;;5032201;28;20080;-68
2022/10/27 05:23:29;;;;;;;5.30;3.38;;;;;;;;;;5064046;28;20025;-64
2022/10/27 05:25:55;;;;;;;4.40;3.60;;;;;;;;;;5032351;28;20025;-66
2022/10/27 05:28:22;;;;;;;5.25;3.38;;;;;;;;;;5032469;28;20492;-66
2022/10/27 05:30:47;;;;;;;5.32;3.80;;;;;;;;;;5032293;28;20029;-65
2022/10/27 05:33:13;;;;;;;5.57;3.50;;;;;;;;;;5032401;28;20600;-66
2022/10/27 05:35:39;;;;;;;5.00;4.00;;;;;;;;;;5032393;28;20473;-64
2022/10/27 05:38:05;;;;;;;3.72;3.30;;;;;;;;;;5031929;28;20053;-62
2022/10/27 05:40:33;;;;;;;4.45;3.83;;;;;;;;;;5028117;28;20053;-64
2022/10/27 05:43:00;;;;;;;5.05;3.63;;;;;;;;;;5029717;28;20466;-62
2022/10/27 05:45:26;;;;;;;5.40;3.75;;;;;;;;;;5028402;28;20049;-64
2022/10/27 05:48:00;;;;;;;7.00;4.15;;;;;;;;;;5027864;28;20104;-64
2022/10/27 05:50:27;;;;;;;5.50;4.32;;;;;;;;;;5027144;28;20080;-64
2022/10/27 05:52:52;;;;;;;5.93;4.05;;;;;;;;;;5024609;28;20038;-66
2022/10/27 05:55:18;;;;;;;5.28;4.30;;;;;;;;;;5013566;28;20478;-63
2022/10/27 05:58:05;;;;;;;6.85;4.72;;;;;;;;;;5024743;28;20176;-64
2022/10/27 06:00:33;;;;;;;6.22;4.47;;;;;;;;;;5028771;28;20032;-65
2022/10/27 06:03:01;;;;;;;5.60;4.30;;;;;;;;;;5028184;28;20103;-65
2022/10/27 06:05:28;;;;;;;5.90;4.70;;;;;;;;;;5028268;28;20028;-63
2022/10/27 06:07:54;;;;;;;5.65;4.63;;;;;;;;;;5030777;28;20029;-63
2022/10/27 06:10:20;;;;;;;8.38;4.80;;;;;;;;;;5032734;28;20034;-63
2022/10/27 06:12:45;;;;;;;7.68;5.07;;;;;;;;;;5034061;28;20516;-65
2022/10/27 06:15:11;;;;;;;8.10;5.20;;;;;;;;;;5031387;28;20045;-62
2022/10/27 06:17:39;;;;;;;8.07;5.70;;;;;;;;;;5031068;28;20029;-62
2022/10/27 06:20:05;;;;;;;7.65;5.63;;;;;;;;;;5034898;28;20025;-65
2022/10/27 06:22:31;;;;;;;9.13;4.90;;;;;;;;;;5036182;28;20048;-64
2022/10/27 06:24:57;;;;;;;8.25;5.13;;;;;;;;;;5035670;28;20029;-65
2022/10/27 06:27:22;;;;;;;6.68;4.88;;;;;;;;;;5035411;28;20033;-64
2022/10/27 06:29:48;;;;;;;6.85;4.80;;;;;;;;;;5036619;28;20091;-61
2022/10/27 06:32:14;;;;;;;7.45;5.00;;;;;;;;;;5035340;28;20036;-62
2022/10/27 06:34:39;;;;;;;8.73;4.65;;;;;;;;;;5035622;28;20167;-64
2022/10/27 06:37:05;;;;;;;5.35;4.60;;;;;;;;;;5034441;28;20491;-64
2022/10/27 06:39:31;;;;;;;7.45;4.93;;;;;;;;;;5035756;28;20029;-63
2022/10/27 06:41:57;;;;;;;9.25;5.85;;;;;;;;;;5036187;28;20029;-62
2022/10/27 06:44:26;;;;;;;6.38;4.47;;;;;;;;;;5038398;28;20709;-61
2022/10/27 06:46:54;;;;;;;7.67;4.67;;;;;;;;;;5034924;28;20107;-61
2022/10/27 06:49:20;;;;;;;6.47;4.68;;;;;;;;;;5035367;28;20112;-64
2022/10/27 06:51:45;;;;;;;6.75;5.05;;;;;;;;;;5034892;28;20101;-61
2022/10/27 06:54:11;;;;;;;6.70;4.68;;;;;;;;;;5034813;28;20091;-61
2022/10/27 06:56:36;;;;;;;6.57;4.65;;;;;;;;;;5033471;28;20037;-64
2022/10/27 06:59:02;;;;;;;6.38;4.63;;;;;;;;;;5034752;28;20037;-62
2022/10/27 07:01:27;;;;;;;6.10;4.35;;;;;;;;;;5035500;28;20099;-63
2022/10/27 07:03:53;;;;;;;6.22;4.47;;;;;;;;;;5035866;28;20075;-62
2022/10/27 07:06:19;;;;;;;6.57;4.85;;;;;;;;;;5035076;28;20116;-62
2022/10/27 07:08:45;;;;;;;6.47;4.53;;;;;;;;;;5030354;28;20065;-65
2022/10/27 07:11:11;;;;;;;8.05;4.78;;;;;;;;;;5024270;28;20041;-63
2022/10/27 07:13:36;;;;;;;6.45;4.82;;;;;;;;;;5022504;28;20195;-62
2022/10/27 07:16:02;;;;;;;7.28;5.05;;;;;;;;;;5018406;28;20101;-68
2022/10/27 07:18:27;;;;;;;7.10;4.80;;;;;;;;;;5023293;28;20444;-63
2022/10/27 07:20:53;;;;;;;5.32;4.32;;;;;;;;;;5032041;28;20094;-65
2022/10/27 07:23:19;;;;;;;8.40;5.50;;;;;;;;;;5032471;28;20038;-61
2022/10/27 07:25:49;;;;;;;6.65;5.13;;;;;;;;;;5034678;28;20056;-61
2022/10/27 07:28:16;;;;;;;6.40;4.63;;;;;;;;;;5034085;28;20492;-64
2022/10/27 07:30:43;;;;;;;5.90;4.68;;;;;;;;;;5029061;28;20029;-69
2022/10/27 07:33:12;;;;;;;7.88;4.85;;;;;;;;;;5014561;28;20103;-65
2022/10/27 07:35:37;;;;;;;6.18;5.07;;;;;;;;;;5014017;28;20034;-64
2022/10/27 07:38:03;;;;;;;5.72;4.50;;;;;;;;;;5014162;28;20028;-63
2022/10/27 07:40:29;;;;;;;8.25;5.15;;;;;;;;;;5013982;28;20538;-65
2022/10/27 07:42:56;;;;;;;8.20;5.18;;;;;;;;;;5012580;28;20044;-60
2022/10/27 07:45:23;;;;;;;9.65;4.88;;;;;;;;;;5013649;28;20022;-63
2022/10/27 07:47:52;;;;;;;8.60;5.07;;;;;;;;;;5013735;28;20033;-67
2022/10/27 07:50:19;;;;;;;7.35;4.68;;;;;;;;;;5013832;28;20036;-66
2022/10/27 07:52:48;;;;;;;10.50;5.13;;;;;;;;;;5045255;28;20084;-60
2022/10/27 07:55:14;;;;;;;17.35;5.68;;;;;;;;;;5012439;28;20116;-62
2022/10/27 07:57:41;;;;;;;5.88;4.63;;;;;;;;;;5013614;28;20032;-60
2022/10/27 08:00:15;;;;;;;7.38;5.03;;;;;;;;;;5013556;28;20113;-60
2022/10/27 08:02:42;;;;;;;6.40;4.70;;;;;;;;;;5013709;28;20033;-63
2022/10/27 08:05:08;;;;;;;16.23;5.13;;;;;;;;;;5016881;28;20092;-60
2022/10/27 08:07:35;;;;;;;7.32;5.07;;;;;;;;;;5030671;28;20504;-63
2022/10/27 08:10:01;;;;;;;7.72;4.78;;;;;;;;;;5030748;28;20054;-62
2022/10/27 08:12:27;;;;;;;7.03;4.43;;;;;;;;;;5055015;28;20474;-63
2022/10/27 08:14:52;;;;;;;6.80;4.82;;;;;;;;;;5030536;28;20033;-65
2022/10/27 08:17:18;;;;;;;8.75;4.75;;;;;;;;;;5032614;28;20041;-63
2022/10/27 08:19:43;;;;;;;6.75;4.57;;;;;;;;;;5031141;28;20025;-62
2022/10/27 08:22:09;;;;;;;6.13;5.00;;;;;;;;;;5031658;28;20037;-67
2022/10/27 08:24:34;;;;;;;7.97;5.03;;;;;;;;;;5032208;28;20028;-63
2022/10/27 08:27:00;;;;;;;8.43;4.53;;;;;;;;;;5032015;28;20029;-60
2022/10/27 08:29:26;;;;;;;7.35;4.75;;;;;;;;;;5032014;28;20500;-61
2022/10/27 08:31:52;;;;;;;7.95;4.57;;;;;;;;;;5031717;28;20099;-66
2022/10/27 08:34:17;;;;;;;7.05;4.63;;;;;;;;;;5030159;28;20135;-64
2022/10/27 08:36:43;;;;;;;8.05;4.38;;;;;;;;;;5028937;28;20108;-60
2022/10/27 08:39:09;;;;;;;5.57;4.60;;;;;;;;;;5032306;28;20021;-66
2022/10/27 08:41:34;;;;;;;8.50;4.55;;;;;;;;;;5029597;28;20032;-62
2022/10/27 08:44:19;;;;;;;5.45;4.38;;;;;;;;;;5030151;28;20492;-61
2022/10/27 08:47:25;;;;;;;6.07;4.43;;;;;;;;;;5029849;28;20021;-67
2022/10/27 08:50:18;;;;;;;6.25;4.70;;;;;;;;;;5019749;28;20040;-63
2022/10/27 08:53:10;;;;;;;10.73;4.78;;;;;;;;;;5027149;28;20120;-62
2022/10/27 08:55:43;;;;;;;6.55;4.97;;;;;;;;;;5025866;28;20045;-63
2022/10/27 08:58:33;;;;;;;7.50;4.80;;;;;;;;;;5026610;28;20485;-63
2022/10/27 09:01:05;;;;;;;5.68;4.25;;;;;;;;;;5028814;28;20026;-61
2022/10/27 09:03:55;;;;;;;7.85;4.88;;;;;;;;;;5026990;28;20030;-60
2022/10/27 09:06:32;;;;;;;9.20;4.40;;;;;;;;;;5030952;28;20427;-61
2022/10/27 09:09:22;;;;;;;6.28;4.88;;;;;;;;;;5030613;28;20588;-60
2022/10/27 09:12:02;;;;;;;7.75;4.72;;;;;;;;;;5024802;28;20033;-60
2022/10/27 09:15:15;;;;;;;6.22;4.45;;;;;;;;;;5030557;28;20029;-63
2022/10/27 09:17:59;;;;;;;6.85;4.55;;;;;;;;;;5018553;28;20029;-63
2022/10/27 09:20:46;;;;;;;8.75;4.78;;;;;;;;;;5018977;28;20033;-62
2022/10/27 09:23:23;;;;;;;6.45;4.50;;;;;;;;;;5014306;28;20041;-61
2022/10/27 09:25:51;;;;;;;8.40;4.80;;;;;;;;;;5009165;28;20042;-60
2022/10/27 09:28:41;;;;;;;6.57;4.78;;;;;;;;;;5010857;28;20200;-61
2022/10/27 09:31:14;;;;;;;7.80;4.97;;;;;;;;;;5010686;28;20034;-61
2022/10/27 09:33:50;;;;;;;6.90;4.95;;;;;;;;;;5010809;28;20030;-60
2022/10/27 09:36:18;;;;;;;8.70;4.60;;;;;;;;;;5010570;28;20029;-60
2022/10/27 09:38:44;;;;;;;6.57;4.97;;;;;;;;;;5008605;28;20188;-62
2022/10/27 09:41:10;;;;;;;7.30;4.70;;;;;;;;;;5010651;28;20100;-60
2022/10/27 09:43:36;;;;;;;9.15;5.50;;;;;;;;;;5010612;28;20042;-61
2022/10/27 09:46:09;;;;;;;9.18;5.25;;;;;;;;;;5011509;28;20034;-60
2022/10/27 09:48:35;;;;;;;7.47;5.32;;;;;;;;;;5014377;28;20018;-61
2022/10/27 09:51:11;;;;;;;7.25;4.78;;;;;;;;;;5014491;28;20032;-63
2022/10/27 09:53:49;;;;;;;5.85;4.80;;;;;;;;;;5014169;28;20061;-59
2022/10/27 09:56:24;;;;;;;6.35;4.75;;;;;;;;;;5014301;28;20061;-64
2022/10/27 09:58:59;;;;;;;6.70;4.70;;;;;;;;;;5014224;28;20033;-59
2022/10/27 10:01:27;;;;;;;8.52;5.32;;;;;;;;;;5014434;28;20042;-59
2022/10/27 10:04:05;;;;;;;6.72;4.95;;;;;;;;;;5014292;28;20079;-60
2022/10/27 10:06:35;;;;;;;7.15;5.05;;;;;;;;;;5014210;28;20022;-60
2022/10/27 10:09:22;;;;;;;6.53;5.30;;;;;;;;;;5018863;28;20044;-63
2022/10/27 10:11:48;;;;;;;8.85;5.28;;;;;;;;;;5030198;28;20021;-60
2022/10/27 10:14:24;;;;;;;5.78;4.70;;;;;;;;;;5030944;28;20029;-65
2022/10/27 10:16:51;;;;;;;9.25;5.00;;;;;;;;;;5020262;28;20072;-60
2022/10/27 10:19:22;;;;;;;9.38;5.32;;;;;;;;;;5013853;28;20037;-59
2022/10/27 10:21:58;;;;;;;7.35;5.53;;;;;;;;;;5013849;28;20083;-64
2022/10/27 10:24:28;;;;;;;7.07;5.05;;;;;;;;;;5013865;28;20042;-59
2022/10/27 10:26:59;;;;;;;5.90;5.07;;;;;;;;;;5014102;28;20381;-60
2022/10/27 10:29:38;;;;;;;9.80;5.55;;;;;;;;;;5015692;28;20023;-60
2022/10/27 10:32:22;;;;;;;8.38;5.55;;;;;;;;;;5022950;28;20154;-60
2022/10/27 10:34:52;;;;;;;7.53;5.05;;;;;;;;;;5014880;28;20049;-62
2022/10/27 10:37:33;;;;;;;5.80;5.17;;;;;;;;;;5028723;28;20037;-60
2022/10/27 10:40:18;;;;;;;6.97;4.80;;;;;;;;;;5015333;28;20033;-60
2022/10/27 10:42:48;;;;;;;7.53;5.03;;;;;;;;;;5013207;28;20725;-65
2022/10/27 10:45:21;;;;;;;8.68;5.35;;;;;;;;;;5013444;28;20033;-62
2022/10/27 10:47:50;;;;;;;6.20;5.05;;;;;;;;;;5012063;28;20511;-60
2022/10/27 10:50:16;;;;;;;8.27;4.78;;;;;;;;;;5012964;28;20030;-61
2022/10/27 10:52:49;;;;;;;7.80;5.47;;;;;;;;;;5013142;28;20080;-60
2022/10/27 10:55:23;;;;;;;7.40;4.97;;;;;;;;;;5013399;28;20034;-61
2022/10/27 10:57:51;;;;;;;6.32;5.00;;;;;;;;;;5012316;28;20034;-58
2022/10/27 11:00:19;;;;;;;7.47;5.75;;;;;;;;;;5013017;28;20203;-59
2022/10/27 11:03:12;;;;;;;6.07;4.90;;;;;;;;;;5012147;28;20029;-58
2022/10/27 11:05:40;;;;;;;7.10;5.20;;;;;;;;;;5012654;28;20425;-60
2022/10/27 11:08:18;;;;;;;8.80;5.43;;;;;;;;;;5012819;28;20032;-59
2022/10/27 11:10:46;;;;;;;8.23;5.40;;;;;;;;;;5013222;28;20103;-63
2022/10/27 11:13:17;;;;;;;6.38;4.80;;;;;;;;;;5013036;28;20022;-59
2022/10/27 11:15:51;;;;;;;6.75;4.78;;;;;;;;;;5012859;28;20532;-60
2022/10/27 11:18:28;;;;;;;7.43;5.68;;;;;;;;;;5012726;28;20030;-58
2022/10/27 11:20:56;;;;;;;5.60;4.75;;;;;;;;;;5013082;28;20040;-60
2022/10/27 11:23:27;;;;;;;6.95;5.18;;;;;;;;;;5013091;28;20029;-64
2022/10/27 11:25:55;;;;;;;6.45;4.85;;;;;;;;;;5012528;28;20063;-59
2022/10/27 11:28:26;;;;;;;7.07;5.13;;;;;;;;;;5012464;28;20065;-59
2022/10/27 11:31:17;;;;;;;6.93;4.55;;;;;;;;;;5012867;28;20021;-60
2022/10/27 11:33:55;;;;;;;5.65;5.05;;;;;;;;;;5012737;28;20192;-63
2022/10/27 11:36:36;;;;;;;5.13;4.63;;;;;;;;;;5012894;28;20518;-60
2022/10/27 11:39:09;;;;;;;7.57;4.88;;;;;;;;;;5015806;28;20486;-61
2022/10/27 11:41:40;;;;;;;6.70;4.90;;;;;;;;;;5015113;28;20436;-66
2022/10/27 11:44:12;;;;;;;7.15;4.82;;;;;;;;;;5015297;28;20030;-61
2022/10/27 11:46:44;;;;;;;7.47;4.88;;;;;;;;;;5012573;28;20120;-63
2022/10/27 11:49:12;;;;;;;7.20;4.88;;;;;;;;;;5013166;28;20034;-61
2022/10/27 11:51:56;;;;;;;5.35;4.70;;;;;;;;;;5013488;28;20018;-61
2022/10/27 11:54:22;;;;;;;6.25;4.68;;;;;;;;;;5011201;28;20362;-59
2022/10/27 11:57:01;;;;;;;5.57;4.70;;;;;;;;;;5012127;28;20036;-59
2022/10/27 12:00:00;;;;;;;5.70;4.57;;;;;;;;;;5010802;28;20022;-59
2022/10/27 12:03:05;;;;;;;4.80;4.27;;;;;;;;;;5011991;28;20060;-62
2022/10/27 12:05:45;;;;;;;9.73;4.18;;;;;;;;;;5012373;28;20382;-60
2022/10/27 12:08:40;;;;;;;5.95;4.97;;;;;;;;;;5011846;28;20045;-59
2022/10/27 12:11:50;;;;;;;6.75;4.70;;;;;;;;;;5011039;28;20404;-60
2022/10/27 12:14:42;;;;;;;6.13;4.93;;;;;;;;;;4989476;28;20030;-63
2022/10/27 12:17:14;;;;;;;7.85;5.13;;;;;;;;;;4989624;28;20070;-61
2022/10/27 12:19:43;;;;;;;5.03;4.40;;;;;;;;;;5004513;28;20045;-61
2022/10/27 12:22:20;;;;;;;5.75;4.35;;;;;;;;;;5011458;28;20082;-65
2022/10/27 12:24:57;;;;;;;7.72;4.60;;;;;;;;;;5011394;28;20084;-64
2022/10/27 12:27:37;;;;;;;7.82;4.50;;;;;;;;;;5011681;28;20100;-61
2022/10/27 12:30:11;;;;;;;5.93;4.72;;;;;;;;;;5011699;28;20061;-60
2022/10/27 12:32:59;;;;;;;6.13;4.60;;;;;;;;;;5011472;28;20021;-59
2022/10/27 12:35:49;;;;;;;6.40;4.63;;;;;;;;;;5009790;28;20417;-63
2022/10/27 12:38:46;;;;;;;5.65;4.70;;;;;;;;;;5011362;28;20033;-60
2022/10/27 12:41:28;;;;;;;7.32;4.68;;;;;;;;;;5011172;28;20026;-62
2022/10/27 12:44:05;;;;;;;8.70;4.30;;;;;;;;;;5011146;28;20124;-64
2022/10/27 12:47:00;;;;;;;6.88;4.47;;;;;;;;;;5011325;28;20267;-64
2022/10/27 12:49:44;;;;;;;6.13;5.05;;;;;;;;;;5009832;28;20049;-59
2022/10/27 12:52:27;;;;;;;6.18;4.40;;;;;;;;;;5011026;28;20038;-63
2022/10/27 12:55:17;;;;;;;6.47;5.00;;;;;;;;;;5011208;28;20056;-60
2022/10/27 12:57:50;;;;;;;5.95;4.70;;;;;;;;;;5011275;28;20034;-61
2022/10/27 13:00:18;;;;;;;9.07;5.15;;;;;;;;;;5010981;28;20065;-59
2022/10/27 13:03:15;;;;;;;7.32;4.93;;;;;;;;;;5010811;28;20034;-63
2022/10/27 13:06:05;;;;;;;8.48;4.80;;;;;;;;;;5010824;28;20434;-61
2022/10/27 13:08:45;;;;;;;5.55;4.72;;;;;;;;;;5010922;28;20026;-60
2022/10/27 13:11:46;;;;;;;8.68;4.63;;;;;;;;;;5011073;28;20053;-62
2022/10/27 13:14:21;;;;;;;6.45;4.65;;;;;;;;;;4998418;28;20037;-67
2022/10/27 13:16:58;;;;;;;5.43;4.45;;;;;;;;;;5010980;28;20026;-67
2022/10/27 13:19:46;;;;;;;7.75;4.85;;;;;;;;;;5010829;28;20037;-59
2022/10/27 13:22:27;;;;;;;6.13;4.28;;;;;;;;;;5013718;28;20033;-67
2022/10/27 13:24:58;;;;;;;7.60;4.63;;;;;;;;;;5015279;28;20616;-65
2022/10/27 13:27:31;;;;;;;5.85;4.88;;;;;;;;;;5014704;28;20072;-63
2022/10/27 13:30:04;;;;;;;7.93;4.85;;;;;;;;;;5015083;28;20034;-68
2022/10/27 13:32:51;;;;;;;5.95;4.57;;;;;;;;;;5014862;28;20037;-60
2022/10/27 13:35:17;;;;;;;7.63;5.07;;;;;;;;;;5015209;28;20026;-69
2022/10/27 13:37:44;;;;;;;6.57;4.53;;;;;;;;;;5014807;28;20466;-70
2022/10/27 13:40:16;;;;;;;6.97;4.45;;;;;;;;;;5014924;28;20100;-67
2022/10/27 13:42:41;;;;;;;7.10;4.88;;;;;;;;;;5014726;28;20030;-63
2022/10/27 13:45:25;;;;;;;6.88;5.05;;;;;;;;;;5014493;28;20474;-60
2022/10/27 13:48:30;;;;;;;5.22;4.30;;;;;;;;;;5014344;28;20131;-60
2022/10/27 13:50:57;;;;;;;5.68;4.68;;;;;;;;;;5013293;28;20533;-63
2022/10/27 13:53:24;;;;;;;6.03;4.88;;;;;;;;;;5014530;28;20050;-61
2022/10/27 13:55:51;;;;;;;5.97;4.68;;;;;;;;;;5014537;28;20029;-59
2022/10/27 13:58:25;;;;;;;6.03;4.90;;;;;;;;;;5014215;28;20026;-60
2022/10/27 14:01:15;;;;;;;6.28;4.40;;;;;;;;;;5014711;28;20038;-59
2022/10/27 14:03:59;;;;;;;5.57;4.32;;;;;;;;;;5014337;28;20148;-59
2022/10/27 14:06:37;;;;;;;6.40;4.20;;;;;;;;;;5014145;28;20022;-67
2022/10/27 14:09:17;;;;;;;6.72;4.53;;;;;;;;;;5012811;28;20036;-59
2022/10/27 14:11:46;;;;;;;6.47;4.45;;;;;;;;;;5014446;28;20056;-59
2022/10/27 14:14:22;;;;;;;5.73;4.53;;;;;;;;;;5014309;28;20029;-60
2022/10/27 14:16:48;;;;;;;5.88;4.32;;;;;;;;;;5013934;28;20034;-60
2022/10/27 14:19:18;;;;;;;5.32;4.05;;;;;;;;;;5014479;28;20041;-60
2022/10/27 14:21:53;;;;;;;6.30;5.03;;;;;;;;;;5014168;28;20036;-61
2022/10/27 14:24:43;;;;;;;6.85;4.72;;;;;;;;;;5013933;28;20046;-60
2022/10/27 14:27:13;;;;;;;5.78;4.70;;;;;;;;;;5013833;28;20029;-59
2022/10/27 14:29:39;;;;;;;5.38;4.60;;;;;;;;;;5013980;28;20037;-64
2022/10/27 14:32:19;;;;;;;4.78;4.22;;;;;;;;;;5012959;28;20386;-60
2022/10/27 14:34:45;;;;;;;6.07;4.07;;;;;;;;;;5014050;28;20117;-65
2022/10/27 14:37:31;;;;;;;5.18;4.55;;;;;;;;;;5013540;28;20467;-59
2022/10/27 14:39:59;;;;;;;8.73;4.93;;;;;;;;;;5013166;28;20049;-60
2022/10/27 14:42:27;;;;;;;6.35;5.03;;;;;;;;;;5013765;28;20565;-60
2022/10/27 14:45:09;;;;;;;7.10;4.93;;;;;;;;;;5013339;28;20033;-67
2022/10/27 14:47:35;;;;;;;6.07;4.88;;;;;;;;;;5012299;28;20057;-60
2022/10/27 14:50:04;;;;;;;5.85;4.70;;;;;;;;;;5013374;28;20061;-62
2022/10/27 14:52:39;;;;;;;7.78;4.78;;;;;;;;;;5012972;28;20041;-61
2022/10/27 14:55:15;;;;;;;6.60;4.85;;;;;;;;;;5012141;28;20063;-60
2022/10/27 14:57:40;;;;;;;8.82;5.07;;;;;;;;;;5012040;28;20022;-60
2022/10/27 15:00:30;;;;;;;7.80;5.05;;;;;;;;;;5013064;28;20091;-60
2022/10/27 15:02:58;;;;;;;6.32;4.72;;;;;;;;;;5013298;28;20037;-62
2022/10/27 15:05:30;;;;;;;6.55;4.90;;;;;;;;;;5013444;28;20065;-60
2022/10/27 15:07:58;;;;;;;5.35;4.50;;;;;;;;;;5012896;28;20056;-60
2022/10/27 15:10:31;;;;;;;5.40;4.70;;;;;;;;;;5012946;28;20533;-60